AA323 KDFW-KSNA
Flight info
| Callsign | AA323 |
|---|---|
| Flight time | 3h 31m |
| Altitude | 32000 |
| Route | WSTEX2 CIKAN EWM ITUCO KA18O CULTS EMLLD DSNEE6 |
| Aircraft | B738/M-SDE2E3FGHIRWXY/LB1 |
Departure
| Time | 2026-05-05 22:17 |
|---|---|
| Airport | Dallas Fort Worth International Airport (KDFW) |
Arrival
| Time | 2026-05-06 01:48 |
|---|---|
| Airport | John Wayne Orange County International Airport (KSNA) |
| Time | Latitude | Longitude | Altitude | Speed | Heading |
|---|---|---|---|---|---|
| 2026-05-05 21:30 | 32.90003 | -97.03646 | 597 ft | 0 kts | 202° |
| 2026-05-05 21:57 | 32.90013 | -97.03642 | 597 ft | 4 kts | 204° |
| 2026-05-05 21:58 | 32.90036 | -97.03630 | 597 ft | 4 kts | 199° |
| 2026-05-05 21:58 | 32.90061 | -97.03622 | 597 ft | 4 kts | 187° |
| 2026-05-05 21:58 | 32.90085 | -97.03622 | 597 ft | 4 kts | 155° |
| 2026-05-05 21:58 | 32.90097 | -97.03633 | 597 ft | 1 kts | 128° |
| 2026-05-05 21:59 | 32.90098 | -97.03635 | 597 ft | 0 kts | 128° |
| 2026-05-05 22:01 | 32.90097 | -97.03624 | 597 ft | 3 kts | 92° |
| 2026-05-05 22:02 | 32.90109 | -97.03594 | 597 ft | 5 kts | 65° |
| 2026-05-05 22:02 | 32.90117 | -97.03549 | 597 ft | 6 kts | 87° |
| 2026-05-05 22:02 | 32.90117 | -97.03529 | 597 ft | 0 kts | 89° |
| 2026-05-05 22:03 | 32.90117 | -97.03514 | 597 ft | 7 kts | 89° |
| 2026-05-05 22:03 | 32.90113 | -97.03455 | 597 ft | 7 kts | 94° |
| 2026-05-05 22:03 | 32.90109 | -97.03396 | 596 ft | 7 kts | 94° |
| 2026-05-05 22:04 | 32.90109 | -97.03338 | 596 ft | 7 kts | 86° |
| 2026-05-05 22:04 | 32.90140 | -97.03302 | 596 ft | 7 kts | 5° |
| 2026-05-05 22:04 | 32.90187 | -97.03312 | 596 ft | 7 kts | 348° |
| 2026-05-05 22:04 | 32.90229 | -97.03314 | 596 ft | 7 kts | 358° |
| 2026-05-05 22:06 | 32.90273 | -97.03316 | 596 ft | 7 kts | 358° |
| 2026-05-05 22:06 | 32.90318 | -97.03318 | 596 ft | 6 kts | 357° |
| 2026-05-05 22:07 | 32.90362 | -97.03319 | 596 ft | 6 kts | 0° |
| 2026-05-05 22:07 | 32.90406 | -97.03318 | 596 ft | 6 kts | 0° |
| 2026-05-05 22:07 | 32.90428 | -97.03318 | 596 ft | 0 kts | 0° |
| 2026-05-05 22:08 | 32.90430 | -97.03321 | 596 ft | 1 kts | 324° |
| 2026-05-05 22:08 | 32.90421 | -97.03328 | 596 ft | 3 kts | 181° |
| 2026-05-05 22:08 | 32.90396 | -97.03323 | 596 ft | 4 kts | 172° |
| 2026-05-05 22:08 | 32.90370 | -97.03319 | 596 ft | 4 kts | 172° |
| 2026-05-05 22:09 | 32.90345 | -97.03315 | 596 ft | 4 kts | 172° |
| 2026-05-05 22:09 | 32.90315 | -97.03313 | 596 ft | 8 kts | 179° |
| 2026-05-05 22:09 | 32.90218 | -97.03313 | 596 ft | 17 kts | 180° |
| 2026-05-05 22:09 | 32.90085 | -97.03314 | 596 ft | 21 kts | 181° |
| 2026-05-05 22:10 | 32.89922 | -97.03314 | 596 ft | 25 kts | 180° |
| 2026-05-05 22:10 | 32.89743 | -97.03313 | 596 ft | 25 kts | 176° |
| 2026-05-05 22:10 | 32.89573 | -97.03314 | 596 ft | 24 kts | 179° |
| 2026-05-05 22:10 | 32.89414 | -97.03315 | 596 ft | 23 kts | 180° |
| 2026-05-05 22:11 | 32.89259 | -97.03317 | 596 ft | 22 kts | 181° |
| 2026-05-05 22:11 | 32.89109 | -97.03318 | 596 ft | 21 kts | 178° |
| 2026-05-05 22:11 | 32.88962 | -97.03318 | 595 ft | 21 kts | 181° |
| 2026-05-05 22:11 | 32.88821 | -97.03323 | 596 ft | 20 kts | 182° |
| 2026-05-05 22:12 | 32.88683 | -97.03322 | 596 ft | 19 kts | 179° |
| 2026-05-05 22:12 | 32.88551 | -97.03324 | 596 ft | 19 kts | 182° |
| 2026-05-05 22:12 | 32.88427 | -97.03290 | 595 ft | 18 kts | 181° |
| 2026-05-05 22:12 | 32.88304 | -97.03288 | 595 ft | 18 kts | 179° |
| 2026-05-05 22:13 | 32.88184 | -97.03289 | 595 ft | 17 kts | 181° |
| 2026-05-05 22:13 | 32.88136 | -97.03290 | 595 ft | 0 kts | 175° |
| 2026-05-05 22:13 | 32.88109 | -97.03288 | 595 ft | 7 kts | 181° |
| 2026-05-05 22:14 | 32.88059 | -97.03290 | 595 ft | 7 kts | 181° |
| 2026-05-05 22:14 | 32.88010 | -97.03291 | 596 ft | 7 kts | 181° |
| 2026-05-05 22:14 | 32.87964 | -97.03292 | 596 ft | 7 kts | 181° |
| 2026-05-05 22:14 | 32.87919 | -97.03281 | 595 ft | 7 kts | 139° |
| 2026-05-05 22:15 | 32.87903 | -97.03223 | 591 ft | 9 kts | 89° |
| 2026-05-05 22:15 | 32.87904 | -97.03127 | 578 ft | 0 kts | 89° |
| 2026-05-05 22:15 | 32.87904 | -97.03120 | 580 ft | 6 kts | 89° |
| 2026-05-05 22:16 | 32.87918 | -97.03000 | 575 ft | 11 kts | 49° |
| 2026-05-05 22:16 | 32.87924 | -97.03001 | 573 ft | 0 kts | 354° |
| 2026-05-05 22:16 | 32.87925 | -97.03001 | 573 ft | 6 kts | 354° |
| 2026-05-05 22:17 | 32.88263 | -97.03008 | 580 ft | 90 kts | 357° |
| 2026-05-05 22:17 | 32.89150 | -97.03014 | 574 ft | 161 kts | 0° |
| 2026-05-05 22:17 | 32.90440 | -97.03151 | 767 ft | 207 kts | 350° |
| 2026-05-05 22:17 | 32.91931 | -97.03351 | 1301 ft | 225 kts | 347° |
| 2026-05-05 22:18 | 32.93568 | -97.03280 | 1803 ft | 247 kts | 16° |
| 2026-05-05 22:18 | 32.94968 | -97.02109 | 2629 ft | 251 kts | 57° |
| 2026-05-05 22:18 | 32.95483 | -97.00209 | 3416 ft | 243 kts | 95° |
| 2026-05-05 22:18 | 32.94941 | -96.98320 | 3938 ft | 248 kts | 133° |
| 2026-05-05 22:19 | 32.93499 | -96.97162 | 4448 ft | 255 kts | 171° |
| 2026-05-05 22:19 | 32.91773 | -96.97227 | 5285 ft | 254 kts | 205° |
| 2026-05-05 22:19 | 32.90388 | -96.98446 | 6198 ft | 251 kts | 237° |
| 2026-05-05 22:19 | 32.89851 | -97.00379 | 7122 ft | 249 kts | 270° |
| 2026-05-05 22:20 | 32.90340 | -97.02353 | 8026 ft | 258 kts | 301° |
| 2026-05-05 22:20 | 32.91746 | -97.03748 | 8913 ft | 272 kts | 333° |
| 2026-05-05 22:20 | 32.93653 | -97.04068 | 9748 ft | 291 kts | 4° |
| 2026-05-05 22:20 | 32.95573 | -97.03158 | 10483 ft | 309 kts | 34° |
| 2026-05-05 22:21 | 32.96969 | -97.01175 | 11223 ft | 320 kts | 63° |
| 2026-05-05 22:21 | 32.98237 | -96.99003 | 11952 ft | 321 kts | 41° |
| 2026-05-05 22:21 | 33.00082 | -96.97586 | 12560 ft | 316 kts | 10° |
| 2026-05-05 22:21 | 33.02186 | -96.97426 | 13306 ft | 300 kts | 339° |
| 2026-05-05 22:22 | 33.03967 | -96.98496 | 14005 ft | 279 kts | 307° |
| 2026-05-05 22:22 | 33.04916 | -97.00428 | 14659 ft | 264 kts | 277° |
| 2026-05-05 22:22 | 33.04877 | -97.02571 | 15373 ft | 258 kts | 263° |
| 2026-05-05 22:22 | 33.04882 | -97.04702 | 16028 ft | 263 kts | 271° |
| 2026-05-05 22:23 | 33.04932 | -97.06878 | 16708 ft | 264 kts | 265° |
| 2026-05-05 22:23 | 33.04681 | -97.09054 | 17354 ft | 265 kts | 254° |
| 2026-05-05 22:23 | 33.03883 | -97.11038 | 17996 ft | 269 kts | 240° |
| 2026-05-05 22:23 | 33.02852 | -97.12905 | 18611 ft | 269 kts | 240° |
| 2026-05-05 22:24 | 33.01810 | -97.14767 | 19144 ft | 272 kts | 241° |
| 2026-05-05 22:24 | 33.00882 | -97.16730 | 19645 ft | 271 kts | 252° |
| 2026-05-05 22:24 | 33.00443 | -97.18891 | 20218 ft | 268 kts | 263° |
| 2026-05-05 22:24 | 33.00219 | -97.21078 | 20843 ft | 266 kts | 263° |
| 2026-05-05 22:25 | 32.99747 | -97.23235 | 21296 ft | 271 kts | 253° |
| 2026-05-05 22:25 | 32.98994 | -97.25309 | 21823 ft | 275 kts | 247° |
| 2026-05-05 22:25 | 32.97954 | -97.27214 | 22320 ft | 281 kts | 241° |
| 2026-05-05 22:25 | 32.96767 | -97.29069 | 22846 ft | 282 kts | 240° |
| 2026-05-05 22:26 | 32.95542 | -97.30937 | 23297 ft | 284 kts | 240° |
| 2026-05-05 22:26 | 32.94334 | -97.32775 | 23649 ft | 287 kts | 240° |
| 2026-05-05 22:26 | 32.93089 | -97.34672 | 24064 ft | 287 kts | 241° |
| 2026-05-05 22:26 | 32.91864 | -97.36544 | 24463 ft | 287 kts | 241° |
| 2026-05-05 22:27 | 32.90648 | -97.38407 | 24791 ft | 289 kts | 241° |
| 2026-05-05 22:27 | 32.89410 | -97.40308 | 25124 ft | 291 kts | 241° |
| 2026-05-05 22:27 | 32.88167 | -97.42215 | 25483 ft | 292 kts | 241° |
| 2026-05-05 22:27 | 32.86924 | -97.44124 | 25840 ft | 293 kts | 241° |
| 2026-05-05 22:28 | 32.85672 | -97.46047 | 26177 ft | 294 kts | 241° |
| 2026-05-05 22:28 | 32.84415 | -97.47977 | 26479 ft | 296 kts | 241° |
| 2026-05-05 22:28 | 32.83152 | -97.49916 | 26797 ft | 297 kts | 241° |
| 2026-05-05 22:28 | 32.81880 | -97.51867 | 27140 ft | 298 kts | 241° |
| 2026-05-05 22:29 | 32.80605 | -97.53821 | 27433 ft | 300 kts | 241° |
| 2026-05-05 22:29 | 32.79325 | -97.55784 | 27710 ft | 301 kts | 241° |
| 2026-05-05 22:29 | 32.78472 | -97.57092 | 27906 ft | 302 kts | 241° |
| 2026-05-05 22:29 | 32.76832 | -97.59602 | 28448 ft | 303 kts | 241° |
| 2026-05-05 22:30 | 32.75536 | -97.61586 | 28717 ft | 304 kts | 241° |
| 2026-05-05 22:30 | 32.74233 | -97.63580 | 28954 ft | 306 kts | 241° |
| 2026-05-05 22:30 | 32.73350 | -97.64931 | 29115 ft | 307 kts | 241° |
| 2026-05-05 22:30 | 32.72034 | -97.66942 | 29378 ft | 308 kts | 240° |
| 2026-05-05 22:31 | 32.70731 | -97.68931 | 29623 ft | 309 kts | 241° |
| 2026-05-05 22:31 | 32.69469 | -97.70996 | 29816 ft | 306 kts | 248° |
| 2026-05-05 22:31 | 32.68556 | -97.73258 | 30008 ft | 302 kts | 253° |
| 2026-05-05 22:31 | 32.67845 | -97.75596 | 30169 ft | 299 kts | 258° |
| 2026-05-05 22:32 | 32.67421 | -97.78004 | 30338 ft | 298 kts | 265° |
| 2026-05-05 22:32 | 32.67205 | -97.80452 | 30549 ft | 298 kts | 266° |
| 2026-05-05 22:32 | 32.67023 | -97.82900 | 30775 ft | 298 kts | 267° |
| 2026-05-05 22:32 | 32.66846 | -97.85358 | 30969 ft | 299 kts | 267° |
| 2026-05-05 22:33 | 32.66665 | -97.87817 | 31143 ft | 300 kts | 267° |
| 2026-05-05 22:33 | 32.66479 | -97.90296 | 31319 ft | 301 kts | 267° |
| 2026-05-05 22:33 | 32.66293 | -97.92736 | 31506 ft | 301 kts | 267° |
| 2026-05-05 22:33 | 32.66102 | -97.95207 | 31716 ft | 300 kts | 267° |
| 2026-05-05 22:34 | 32.65908 | -97.97700 | 31712 ft | 308 kts | 267° |
| 2026-05-05 22:34 | 32.65503 | -98.02865 | 31726 ft | 321 kts | 267° |
| 2026-05-05 22:35 | 32.65078 | -98.08227 | 31764 ft | 332 kts | 267° |
| 2026-05-05 22:35 | 32.64634 | -98.13783 | 31758 ft | 343 kts | 267° |
| 2026-05-05 22:36 | 32.64179 | -98.19442 | 31735 ft | 346 kts | 267° |
| 2026-05-05 22:36 | 32.63719 | -98.25133 | 31727 ft | 346 kts | 267° |
| 2026-05-05 22:37 | 32.63266 | -98.30705 | 31712 ft | 337 kts | 267° |
| 2026-05-05 22:37 | 32.62816 | -98.36223 | 31709 ft | 336 kts | 267° |
| 2026-05-05 22:38 | 32.62363 | -98.41763 | 31717 ft | 337 kts | 267° |
| 2026-05-05 22:38 | 32.61908 | -98.47299 | 31706 ft | 338 kts | 267° |
| 2026-05-05 22:39 | 32.61451 | -98.52820 | 31715 ft | 338 kts | 267° |
| 2026-05-05 22:39 | 32.60989 | -98.58374 | 31726 ft | 339 kts | 267° |
| 2026-05-05 22:40 | 32.60524 | -98.63934 | 31726 ft | 340 kts | 267° |
| 2026-05-05 22:40 | 32.60054 | -98.69518 | 31742 ft | 340 kts | 267° |
| 2026-05-05 22:41 | 32.59582 | -98.75103 | 31756 ft | 340 kts | 267° |
| 2026-05-05 22:41 | 32.59107 | -98.80685 | 31765 ft | 340 kts | 267° |
| 2026-05-05 22:42 | 32.58634 | -98.86229 | 31778 ft | 340 kts | 268° |
| 2026-05-05 22:42 | 32.58154 | -98.91812 | 31770 ft | 340 kts | 268° |
| 2026-05-05 22:43 | 32.57672 | -98.97390 | 31773 ft | 339 kts | 267° |
| 2026-05-05 22:43 | 32.57189 | -99.02958 | 31753 ft | 339 kts | 267° |
| 2026-05-05 22:44 | 32.56703 | -99.08524 | 31749 ft | 339 kts | 267° |
| 2026-05-05 22:44 | 32.56215 | -99.14096 | 31728 ft | 339 kts | 267° |
| 2026-05-05 22:45 | 32.55726 | -99.19647 | 31721 ft | 338 kts | 267° |
| 2026-05-05 22:45 | 32.55238 | -99.25155 | 31710 ft | 338 kts | 267° |
| 2026-05-05 22:46 | 32.54745 | -99.30697 | 31711 ft | 338 kts | 267° |
| 2026-05-05 22:46 | 32.54301 | -99.36254 | 31725 ft | 338 kts | 269° |
| 2026-05-05 22:47 | 32.53982 | -99.41805 | 31727 ft | 338 kts | 269° |
| 2026-05-05 22:47 | 32.53667 | -99.47369 | 31751 ft | 338 kts | 269° |
| 2026-05-05 22:48 | 32.53340 | -99.52932 | 31751 ft | 339 kts | 269° |
| 2026-05-05 22:48 | 32.53006 | -99.58473 | 31769 ft | 339 kts | 269° |
| 2026-05-05 22:49 | 32.52665 | -99.64051 | 31766 ft | 340 kts | 269° |
| 2026-05-05 22:49 | 32.52321 | -99.69645 | 31774 ft | 340 kts | 269° |
| 2026-05-05 22:50 | 32.51973 | -99.75252 | 31754 ft | 340 kts | 269° |
| 2026-05-05 22:50 | 32.51626 | -99.80805 | 31748 ft | 340 kts | 269° |
| 2026-05-05 22:51 | 32.51274 | -99.86393 | 31750 ft | 340 kts | 269° |
| 2026-05-05 22:51 | 32.50919 | -99.91990 | 31752 ft | 340 kts | 269° |
| 2026-05-05 22:52 | 32.50562 | -99.97580 | 31740 ft | 340 kts | 269° |
| 2026-05-05 22:52 | 32.50203 | -100.03171 | 31727 ft | 340 kts | 269° |
| 2026-05-05 22:53 | 32.49842 | -100.08751 | 31713 ft | 340 kts | 269° |
| 2026-05-05 22:53 | 32.49480 | -100.14297 | 31707 ft | 340 kts | 269° |
| 2026-05-05 22:54 | 32.49114 | -100.19883 | 31770 ft | 340 kts | 269° |
| 2026-05-05 22:54 | 32.48745 | -100.25472 | 31793 ft | 340 kts | 269° |
| 2026-05-05 22:55 | 32.48373 | -100.31064 | 31830 ft | 341 kts | 269° |
| 2026-05-05 22:55 | 32.48001 | -100.36584 | 31853 ft | 331 kts | 269° |
| 2026-05-05 22:56 | 32.47629 | -100.41995 | 31856 ft | 330 kts | 269° |
| 2026-05-05 22:56 | 32.47248 | -100.47416 | 31860 ft | 330 kts | 269° |
| 2026-05-05 22:57 | 32.46872 | -100.52807 | 31860 ft | 331 kts | 269° |
| 2026-05-05 22:57 | 32.46485 | -100.58252 | 31854 ft | 332 kts | 269° |
| 2026-05-05 22:58 | 32.46104 | -100.63695 | 31821 ft | 332 kts | 269° |
| 2026-05-05 22:58 | 32.45714 | -100.69156 | 31801 ft | 333 kts | 269° |
| 2026-05-05 22:59 | 32.45322 | -100.74627 | 31762 ft | 334 kts | 269° |
| 2026-05-05 22:59 | 32.44924 | -100.80102 | 31732 ft | 334 kts | 269° |
| 2026-05-05 23:00 | 32.44326 | -100.88315 | 31747 ft | 334 kts | 269° |
| 2026-05-05 23:00 | 32.43928 | -100.93782 | 31756 ft | 333 kts | 269° |
| 2026-05-05 23:01 | 32.43550 | -100.99213 | 31754 ft | 332 kts | 269° |
| 2026-05-05 23:01 | 32.43147 | -101.04664 | 31744 ft | 332 kts | 269° |
| 2026-05-05 23:02 | 32.42755 | -101.10107 | 31736 ft | 331 kts | 269° |
| 2026-05-05 23:02 | 32.42370 | -101.15542 | 31714 ft | 331 kts | 269° |
| 2026-05-05 23:03 | 32.42002 | -101.20976 | 31702 ft | 331 kts | 269° |
| 2026-05-05 23:03 | 32.41643 | -101.26410 | 31721 ft | 332 kts | 269° |
| 2026-05-05 23:04 | 32.41315 | -101.31855 | 31858 ft | 331 kts | 265° |
| 2026-05-05 23:04 | 32.41704 | -101.37190 | 31751 ft | 324 kts | 270° |
| 2026-05-05 23:05 | 32.42203 | -101.42498 | 31808 ft | 324 kts | 269° |
| 2026-05-05 23:05 | 32.42697 | -101.47836 | 31775 ft | 327 kts | 269° |
| 2026-05-05 23:06 | 32.43182 | -101.53210 | 31786 ft | 329 kts | 269° |
| 2026-05-05 23:06 | 32.43669 | -101.58611 | 31794 ft | 330 kts | 269° |
| 2026-05-05 23:07 | 32.44157 | -101.64031 | 31784 ft | 330 kts | 269° |
| 2026-05-05 23:07 | 32.44649 | -101.69439 | 31773 ft | 329 kts | 269° |
| 2026-05-05 23:08 | 32.45145 | -101.74823 | 31768 ft | 327 kts | 269° |
| 2026-05-05 23:08 | 32.45643 | -101.80171 | 31757 ft | 325 kts | 269° |
| 2026-05-05 23:09 | 32.46141 | -101.85446 | 31760 ft | 324 kts | 269° |
| 2026-05-05 23:09 | 32.46645 | -101.90739 | 31762 ft | 323 kts | 269° |
| 2026-05-05 23:10 | 32.47154 | -101.96030 | 31784 ft | 323 kts | 269° |
| 2026-05-05 23:10 | 32.47663 | -102.01312 | 31782 ft | 323 kts | 269° |
| 2026-05-05 23:11 | 32.48179 | -102.06618 | 31763 ft | 324 kts | 269° |
| 2026-05-05 23:11 | 32.48698 | -102.11937 | 31764 ft | 325 kts | 269° |
| 2026-05-05 23:12 | 32.49223 | -102.17262 | 31753 ft | 326 kts | 269° |
| 2026-05-05 23:12 | 32.49755 | -102.22595 | 31752 ft | 327 kts | 269° |
| 2026-05-05 23:13 | 32.50296 | -102.27924 | 31745 ft | 327 kts | 269° |
| 2026-05-05 23:13 | 32.50845 | -102.33287 | 31781 ft | 328 kts | 269° |
| 2026-05-05 23:14 | 32.51403 | -102.38651 | 31802 ft | 328 kts | 269° |
| 2026-05-05 23:14 | 32.51967 | -102.43985 | 31832 ft | 328 kts | 269° |
| 2026-05-05 23:15 | 32.52546 | -102.49356 | 31849 ft | 328 kts | 269° |
| 2026-05-05 23:15 | 32.53133 | -102.54721 | 31882 ft | 328 kts | 269° |
| 2026-05-05 23:16 | 32.53725 | -102.60093 | 31883 ft | 329 kts | 269° |
| 2026-05-05 23:16 | 32.54319 | -102.65455 | 31908 ft | 328 kts | 269° |
| 2026-05-05 23:17 | 32.54923 | -102.70829 | 31891 ft | 329 kts | 269° |
| 2026-05-05 23:17 | 32.55431 | -102.75301 | 31893 ft | 329 kts | 269° |
| 2026-05-05 23:18 | 32.56046 | -102.80665 | 31866 ft | 329 kts | 269° |
| 2026-05-05 23:18 | 32.56667 | -102.86037 | 31857 ft | 328 kts | 269° |
| 2026-05-05 23:19 | 32.57293 | -102.91397 | 31824 ft | 328 kts | 269° |
| 2026-05-05 23:19 | 32.57925 | -102.96774 | 31817 ft | 332 kts | 269° |
| 2026-05-05 23:20 | 32.58557 | -103.02253 | 31833 ft | 341 kts | 269° |
| 2026-05-05 23:20 | 32.59194 | -103.07819 | 31862 ft | 340 kts | 269° |
| 2026-05-05 23:21 | 32.59836 | -103.13372 | 31872 ft | 339 kts | 269° |
| 2026-05-05 23:21 | 32.60482 | -103.18907 | 31897 ft | 339 kts | 269° |
| 2026-05-05 23:22 | 32.61134 | -103.24444 | 31891 ft | 338 kts | 269° |
| 2026-05-05 23:22 | 32.61790 | -103.29969 | 31886 ft | 338 kts | 269° |
| 2026-05-05 23:23 | 32.62449 | -103.35478 | 31871 ft | 337 kts | 269° |
| 2026-05-05 23:23 | 32.63111 | -103.40993 | 31841 ft | 337 kts | 269° |
| 2026-05-05 23:24 | 32.63774 | -103.46495 | 31832 ft | 337 kts | 269° |
| 2026-05-05 23:24 | 32.64442 | -103.51994 | 31801 ft | 337 kts | 269° |
| 2026-05-05 23:25 | 32.65112 | -103.57495 | 31775 ft | 337 kts | 269° |
| 2026-05-05 23:25 | 32.65782 | -103.62994 | 31747 ft | 337 kts | 269° |
| 2026-05-05 23:26 | 32.66450 | -103.68492 | 31744 ft | 337 kts | 269° |
| 2026-05-05 23:26 | 32.67116 | -103.73948 | 31745 ft | 336 kts | 269° |
| 2026-05-05 23:27 | 32.67787 | -103.79434 | 31736 ft | 336 kts | 269° |
| 2026-05-05 23:27 | 32.67990 | -103.82176 | 31684 ft | 328 kts | 258° |
| 2026-05-05 23:27 | 32.67459 | -103.84754 | 31771 ft | 317 kts | 246° |
| 2026-05-05 23:28 | 32.65813 | -103.89626 | 31759 ft | 318 kts | 248° |
| 2026-05-05 23:28 | 32.64372 | -103.94615 | 31716 ft | 320 kts | 249° |
| 2026-05-05 23:29 | 32.62950 | -103.99625 | 31715 ft | 321 kts | 249° |
| 2026-05-05 23:29 | 32.61529 | -104.04610 | 31764 ft | 321 kts | 249° |
| 2026-05-05 23:30 | 32.60091 | -104.09627 | 31749 ft | 322 kts | 249° |
| 2026-05-05 23:30 | 32.58642 | -104.14665 | 31782 ft | 323 kts | 248° |
| 2026-05-05 23:31 | 32.57189 | -104.19707 | 31801 ft | 323 kts | 248° |
| 2026-05-05 23:31 | 32.55734 | -104.24747 | 31807 ft | 323 kts | 248° |
| 2026-05-05 23:32 | 32.54276 | -104.29788 | 31807 ft | 324 kts | 248° |
| 2026-05-05 23:32 | 32.52814 | -104.34833 | 31811 ft | 323 kts | 248° |
| 2026-05-05 23:33 | 32.51347 | -104.39885 | 31811 ft | 324 kts | 248° |
| 2026-05-05 23:33 | 32.49892 | -104.44888 | 31805 ft | 324 kts | 248° |
| 2026-05-05 23:34 | 32.48423 | -104.49929 | 31799 ft | 324 kts | 248° |
| 2026-05-05 23:34 | 32.46949 | -104.54982 | 31784 ft | 325 kts | 248° |
| 2026-05-05 23:35 | 32.45468 | -104.60049 | 31787 ft | 325 kts | 248° |
| 2026-05-05 23:35 | 32.43986 | -104.65112 | 31771 ft | 325 kts | 248° |
| 2026-05-05 23:36 | 32.42510 | -104.70145 | 31761 ft | 325 kts | 248° |
| 2026-05-05 23:36 | 32.41023 | -104.75207 | 31763 ft | 325 kts | 248° |
| 2026-05-05 23:37 | 32.39537 | -104.80257 | 31767 ft | 324 kts | 248° |
| 2026-05-05 23:37 | 32.38053 | -104.85290 | 31764 ft | 324 kts | 248° |
| 2026-05-05 23:38 | 32.36571 | -104.90312 | 31777 ft | 323 kts | 248° |
| 2026-05-05 23:38 | 32.35100 | -104.95287 | 31787 ft | 322 kts | 248° |
| 2026-05-05 23:39 | 32.33620 | -105.00283 | 31788 ft | 322 kts | 248° |
| 2026-05-05 23:39 | 32.32136 | -105.05282 | 31778 ft | 322 kts | 248° |
| 2026-05-05 23:40 | 32.30651 | -105.10277 | 31771 ft | 321 kts | 247° |
| 2026-05-05 23:40 | 32.29171 | -105.15248 | 31780 ft | 320 kts | 247° |
| 2026-05-05 23:41 | 32.27684 | -105.20227 | 31760 ft | 321 kts | 247° |
| 2026-05-05 23:41 | 32.26211 | -105.25161 | 31784 ft | 320 kts | 247° |
| 2026-05-05 23:42 | 32.24727 | -105.30126 | 31782 ft | 319 kts | 247° |
| 2026-05-05 23:42 | 32.23247 | -105.35068 | 31753 ft | 319 kts | 247° |
| 2026-05-05 23:43 | 32.21771 | -105.39984 | 31790 ft | 317 kts | 247° |
| 2026-05-05 23:43 | 32.20297 | -105.44889 | 31772 ft | 317 kts | 247° |
| 2026-05-05 23:44 | 32.18818 | -105.49797 | 31766 ft | 318 kts | 247° |
| 2026-05-05 23:44 | 32.17344 | -105.54685 | 31768 ft | 318 kts | 247° |
| 2026-05-05 23:45 | 32.15858 | -105.59605 | 31771 ft | 318 kts | 247° |
| 2026-05-05 23:45 | 32.14370 | -105.64522 | 31779 ft | 318 kts | 247° |
| 2026-05-05 23:46 | 32.12877 | -105.69449 | 31779 ft | 319 kts | 247° |
| 2026-05-05 23:46 | 32.11379 | -105.74386 | 31794 ft | 319 kts | 247° |
| 2026-05-05 23:47 | 32.09877 | -105.79324 | 31776 ft | 320 kts | 247° |
| 2026-05-05 23:47 | 32.08381 | -105.84238 | 31772 ft | 320 kts | 247° |
| 2026-05-05 23:48 | 32.06871 | -105.89189 | 31777 ft | 320 kts | 247° |
| 2026-05-05 23:48 | 32.05359 | -105.94138 | 31765 ft | 320 kts | 247° |
| 2026-05-05 23:49 | 32.03850 | -105.99073 | 31767 ft | 320 kts | 247° |
| 2026-05-05 23:49 | 32.02339 | -106.04002 | 31807 ft | 319 kts | 247° |
| 2026-05-05 23:50 | 32.00828 | -106.08927 | 31798 ft | 320 kts | 247° |
| 2026-05-05 23:50 | 31.99322 | -106.13826 | 31836 ft | 319 kts | 247° |
| 2026-05-05 23:51 | 31.97811 | -106.18737 | 31865 ft | 319 kts | 246° |
| 2026-05-05 23:51 | 31.96406 | -106.23695 | 31849 ft | 323 kts | 253° |
| 2026-05-05 23:52 | 31.96086 | -106.26314 | 31953 ft | 323 kts | 257° |
| 2026-05-05 23:52 | 31.95905 | -106.28966 | 31877 ft | 325 kts | 259° |
| 2026-05-05 23:52 | 31.96251 | -106.34300 | 31997 ft | 330 kts | 269° |
| 2026-05-05 23:53 | 31.97078 | -106.39679 | 31919 ft | 335 kts | 269° |
| 2026-05-05 23:53 | 31.97927 | -106.45092 | 31890 ft | 337 kts | 269° |
| 2026-05-05 23:54 | 31.98766 | -106.50514 | 31820 ft | 335 kts | 268° |
| 2026-05-05 23:54 | 31.99593 | -106.55893 | 31881 ft | 334 kts | 269° |
| 2026-05-05 23:55 | 32.00416 | -106.61301 | 31893 ft | 335 kts | 269° |
| 2026-05-05 23:55 | 32.01231 | -106.66684 | 31899 ft | 336 kts | 269° |
| 2026-05-05 23:56 | 32.02051 | -106.72111 | 31904 ft | 336 kts | 269° |
| 2026-05-05 23:56 | 32.02869 | -106.77540 | 31887 ft | 336 kts | 269° |
| 2026-05-05 23:57 | 32.03683 | -106.82964 | 31875 ft | 336 kts | 269° |
| 2026-05-05 23:57 | 32.04495 | -106.88385 | 31851 ft | 335 kts | 269° |
| 2026-05-05 23:58 | 32.05303 | -106.93803 | 31847 ft | 335 kts | 269° |
| 2026-05-05 23:58 | 32.06102 | -106.99171 | 31845 ft | 335 kts | 269° |
| 2026-05-05 23:59 | 32.06904 | -107.04585 | 31847 ft | 334 kts | 269° |
| 2026-05-05 23:59 | 32.07703 | -107.09993 | 31832 ft | 335 kts | 269° |
| 2026-05-06 00:00 | 32.08501 | -107.15406 | 31822 ft | 335 kts | 269° |
| 2026-05-06 00:00 | 32.09296 | -107.20818 | 31803 ft | 335 kts | 269° |
| 2026-05-06 00:01 | 32.09957 | -107.25331 | 31778 ft | 336 kts | 269° |
| 2026-05-06 00:01 | 32.10751 | -107.30769 | 31764 ft | 337 kts | 269° |
| 2026-05-06 00:02 | 32.11544 | -107.36215 | 31787 ft | 337 kts | 269° |
| 2026-05-06 00:02 | 32.12331 | -107.41634 | 31820 ft | 337 kts | 269° |
| 2026-05-06 00:03 | 32.13119 | -107.47083 | 31861 ft | 337 kts | 269° |
| 2026-05-06 00:03 | 32.13907 | -107.52546 | 31876 ft | 337 kts | 269° |
| 2026-05-06 00:04 | 32.14694 | -107.58011 | 31889 ft | 338 kts | 269° |
| 2026-05-06 00:04 | 32.15476 | -107.63474 | 31926 ft | 338 kts | 269° |
| 2026-05-06 00:05 | 32.16652 | -107.71707 | 31946 ft | 338 kts | 269° |
| 2026-05-06 00:06 | 32.17427 | -107.77146 | 31921 ft | 337 kts | 269° |
| 2026-05-06 00:06 | 32.18200 | -107.82593 | 31927 ft | 336 kts | 269° |
| 2026-05-06 00:07 | 32.18968 | -107.88027 | 31894 ft | 335 kts | 269° |
| 2026-05-06 00:07 | 32.19731 | -107.93438 | 31873 ft | 334 kts | 269° |
| 2026-05-06 00:08 | 32.20491 | -107.98856 | 31850 ft | 334 kts | 269° |
| 2026-05-06 00:08 | 32.21248 | -108.04262 | 31825 ft | 333 kts | 269° |
| 2026-05-06 00:09 | 32.22001 | -108.09666 | 31801 ft | 333 kts | 269° |
| 2026-05-06 00:09 | 32.22748 | -108.15040 | 31777 ft | 333 kts | 269° |
| 2026-05-06 00:10 | 32.23498 | -108.20450 | 31780 ft | 333 kts | 269° |
| 2026-05-06 00:10 | 32.24246 | -108.25859 | 31768 ft | 334 kts | 269° |
| 2026-05-06 00:11 | 32.24988 | -108.31245 | 31794 ft | 334 kts | 269° |
| 2026-05-06 00:11 | 32.25731 | -108.36662 | 31809 ft | 334 kts | 269° |
| 2026-05-06 00:12 | 32.26473 | -108.42082 | 31847 ft | 334 kts | 269° |
| 2026-05-06 00:12 | 32.27213 | -108.47511 | 31862 ft | 334 kts | 269° |
| 2026-05-06 00:13 | 32.27951 | -108.52935 | 31892 ft | 334 kts | 269° |
| 2026-05-06 00:13 | 32.28685 | -108.58349 | 31921 ft | 334 kts | 269° |
| 2026-05-06 00:14 | 32.29416 | -108.63764 | 31923 ft | 333 kts | 269° |
| 2026-05-06 00:14 | 32.30139 | -108.69128 | 31932 ft | 332 kts | 269° |
| 2026-05-06 00:15 | 32.30861 | -108.74516 | 31921 ft | 332 kts | 269° |
| 2026-05-06 00:15 | 32.31582 | -108.79909 | 31926 ft | 332 kts | 269° |
| 2026-05-06 00:16 | 32.32301 | -108.85309 | 31895 ft | 332 kts | 269° |
| 2026-05-06 00:16 | 32.33018 | -108.90709 | 31868 ft | 333 kts | 269° |
| 2026-05-06 00:17 | 32.33733 | -108.96110 | 31846 ft | 333 kts | 269° |
| 2026-05-06 00:17 | 32.34447 | -109.01524 | 31800 ft | 332 kts | 269° |
| 2026-05-06 00:18 | 32.35158 | -109.06922 | 31773 ft | 332 kts | 268° |
| 2026-05-06 00:18 | 32.35864 | -109.12317 | 31745 ft | 332 kts | 269° |
| 2026-05-06 00:19 | 32.36568 | -109.17716 | 31773 ft | 330 kts | 268° |
| 2026-05-06 00:19 | 32.37264 | -109.23062 | 31733 ft | 331 kts | 268° |
| 2026-05-06 00:20 | 32.37962 | -109.28438 | 31747 ft | 330 kts | 268° |
| 2026-05-06 00:20 | 32.38656 | -109.33804 | 31754 ft | 329 kts | 268° |
| 2026-05-06 00:21 | 32.39346 | -109.39157 | 31745 ft | 328 kts | 268° |
| 2026-05-06 00:21 | 32.40031 | -109.44494 | 31747 ft | 328 kts | 268° |
| 2026-05-06 00:22 | 32.40709 | -109.49797 | 31748 ft | 328 kts | 268° |
| 2026-05-06 00:22 | 32.41387 | -109.55120 | 31752 ft | 328 kts | 268° |
| 2026-05-06 00:23 | 32.42065 | -109.60467 | 31758 ft | 328 kts | 268° |
| 2026-05-06 00:23 | 32.42742 | -109.65812 | 31762 ft | 328 kts | 268° |
| 2026-05-06 00:24 | 32.43417 | -109.71158 | 31776 ft | 329 kts | 268° |
| 2026-05-06 00:24 | 32.44099 | -109.76522 | 31770 ft | 332 kts | 269° |
| 2026-05-06 00:25 | 32.45321 | -109.81899 | 31792 ft | 340 kts | 275° |
| 2026-05-06 00:25 | 32.46733 | -109.87233 | 31795 ft | 339 kts | 275° |
| 2026-05-06 00:26 | 32.48126 | -109.92510 | 31794 ft | 336 kts | 275° |
| 2026-05-06 00:26 | 32.49508 | -109.97796 | 31788 ft | 335 kts | 275° |
| 2026-05-06 00:27 | 32.50873 | -110.03055 | 31808 ft | 333 kts | 275° |
| 2026-05-06 00:27 | 32.52229 | -110.08299 | 31804 ft | 332 kts | 275° |
| 2026-05-06 00:28 | 32.53579 | -110.13535 | 31822 ft | 332 kts | 275° |
| 2026-05-06 00:28 | 32.54927 | -110.18777 | 31822 ft | 333 kts | 274° |
| 2026-05-06 00:29 | 32.56267 | -110.23995 | 31820 ft | 333 kts | 274° |
| 2026-05-06 00:29 | 32.57617 | -110.29256 | 31813 ft | 333 kts | 274° |
| 2026-05-06 00:30 | 32.58966 | -110.34524 | 31853 ft | 333 kts | 274° |
| 2026-05-06 00:30 | 32.60313 | -110.39798 | 31819 ft | 336 kts | 274° |
| 2026-05-06 00:31 | 32.61653 | -110.45054 | 31823 ft | 334 kts | 274° |
| 2026-05-06 00:31 | 32.62994 | -110.50313 | 31847 ft | 332 kts | 274° |
| 2026-05-06 00:32 | 32.64324 | -110.55548 | 31840 ft | 331 kts | 274° |
| 2026-05-06 00:32 | 32.65652 | -110.60788 | 31843 ft | 330 kts | 274° |
| 2026-05-06 00:33 | 32.66974 | -110.66013 | 31854 ft | 329 kts | 274° |
| 2026-05-06 00:33 | 32.68288 | -110.71220 | 31857 ft | 329 kts | 274° |
| 2026-05-06 00:34 | 32.69604 | -110.76445 | 31847 ft | 331 kts | 274° |
| 2026-05-06 00:34 | 32.70914 | -110.81656 | 31855 ft | 332 kts | 274° |
| 2026-05-06 00:35 | 32.72233 | -110.86909 | 31855 ft | 332 kts | 274° |
| 2026-05-06 00:35 | 32.73552 | -110.92174 | 31842 ft | 332 kts | 274° |
| 2026-05-06 00:36 | 32.74871 | -110.97441 | 31857 ft | 332 kts | 274° |
| 2026-05-06 00:36 | 32.76186 | -111.02713 | 31852 ft | 333 kts | 274° |
| 2026-05-06 00:37 | 32.77501 | -111.07995 | 31848 ft | 334 kts | 274° |
| 2026-05-06 00:37 | 32.78816 | -111.13282 | 31855 ft | 333 kts | 274° |
| 2026-05-06 00:38 | 32.80120 | -111.18531 | 31856 ft | 333 kts | 274° |
| 2026-05-06 00:38 | 32.81424 | -111.23798 | 31860 ft | 332 kts | 274° |
| 2026-05-06 00:39 | 32.82725 | -111.29060 | 31859 ft | 331 kts | 274° |
| 2026-05-06 00:39 | 32.84020 | -111.34310 | 31858 ft | 330 kts | 274° |
| 2026-05-06 00:40 | 32.85310 | -111.39549 | 31846 ft | 330 kts | 273° |
| 2026-05-06 00:40 | 32.86596 | -111.44789 | 31842 ft | 331 kts | 273° |
| 2026-05-06 00:41 | 32.87873 | -111.50002 | 31841 ft | 331 kts | 273° |
| 2026-05-06 00:41 | 32.89168 | -111.55294 | 31841 ft | 331 kts | 273° |
| 2026-05-06 00:42 | 32.90450 | -111.60544 | 31843 ft | 331 kts | 273° |
| 2026-05-06 00:42 | 32.91726 | -111.65778 | 31840 ft | 331 kts | 273° |
| 2026-05-06 00:43 | 32.93009 | -111.71056 | 31849 ft | 332 kts | 273° |
| 2026-05-06 00:43 | 32.94290 | -111.76332 | 31855 ft | 332 kts | 273° |
| 2026-05-06 00:44 | 32.95569 | -111.81613 | 31867 ft | 332 kts | 273° |
| 2026-05-06 00:44 | 32.96838 | -111.86866 | 31874 ft | 332 kts | 273° |
| 2026-05-06 00:45 | 32.98115 | -111.92158 | 31864 ft | 332 kts | 273° |
| 2026-05-06 00:45 | 32.99388 | -111.97442 | 31864 ft | 331 kts | 273° |
| 2026-05-06 00:46 | 33.00665 | -112.01791 | 31848 ft | 342 kts | 280° |
| 2026-05-06 00:46 | 33.03023 | -112.07765 | 31876 ft | 341 kts | 281° |
| 2026-05-06 00:47 | 33.04719 | -112.12007 | 31866 ft | 341 kts | 281° |
| 2026-05-06 00:47 | 33.06742 | -112.17106 | 31864 ft | 339 kts | 281° |
| 2026-05-06 00:48 | 33.08748 | -112.22197 | 31878 ft | 339 kts | 281° |
| 2026-05-06 00:48 | 33.10753 | -112.27307 | 31864 ft | 340 kts | 281° |
| 2026-05-06 00:49 | 33.12753 | -112.32412 | 31864 ft | 340 kts | 281° |
| 2026-05-06 00:49 | 33.14753 | -112.37524 | 31880 ft | 340 kts | 281° |
| 2026-05-06 00:50 | 33.16756 | -112.42653 | 31875 ft | 341 kts | 281° |
| 2026-05-06 00:50 | 33.18759 | -112.47793 | 31869 ft | 342 kts | 281° |
| 2026-05-06 00:51 | 33.20760 | -112.52929 | 31878 ft | 342 kts | 281° |
| 2026-05-06 00:51 | 33.22755 | -112.58061 | 31890 ft | 342 kts | 281° |
| 2026-05-06 00:52 | 33.24760 | -112.63225 | 31905 ft | 343 kts | 281° |
| 2026-05-06 00:52 | 33.26775 | -112.68426 | 31913 ft | 344 kts | 281° |
| 2026-05-06 00:53 | 33.28790 | -112.73634 | 31906 ft | 345 kts | 281° |
| 2026-05-06 00:53 | 33.30794 | -112.78818 | 31909 ft | 345 kts | 281° |
| 2026-05-06 00:54 | 33.32803 | -112.84022 | 31902 ft | 345 kts | 281° |
| 2026-05-06 00:54 | 33.34814 | -112.89242 | 31889 ft | 345 kts | 282° |
| 2026-05-06 00:55 | 33.36824 | -112.94472 | 31887 ft | 346 kts | 282° |
| 2026-05-06 00:55 | 33.38838 | -112.99718 | 31882 ft | 348 kts | 282° |
| 2026-05-06 00:56 | 33.40849 | -113.04967 | 31873 ft | 350 kts | 283° |
| 2026-05-06 00:56 | 33.42896 | -113.10318 | 31868 ft | 353 kts | 283° |
| 2026-05-06 00:57 | 33.44935 | -113.15651 | 31866 ft | 355 kts | 283° |
| 2026-05-06 00:57 | 33.46997 | -113.21054 | 31876 ft | 357 kts | 284° |
| 2026-05-06 00:58 | 33.49066 | -113.26484 | 31890 ft | 359 kts | 284° |
| 2026-05-06 00:58 | 33.51141 | -113.31938 | 31898 ft | 361 kts | 284° |
| 2026-05-06 00:59 | 33.53225 | -113.37428 | 31916 ft | 362 kts | 285° |
| 2026-05-06 00:59 | 33.55317 | -113.42946 | 31932 ft | 363 kts | 285° |
| 2026-05-06 01:00 | 33.57398 | -113.48440 | 31948 ft | 364 kts | 285° |
| 2026-05-06 01:00 | 33.59270 | -113.54043 | 31948 ft | 359 kts | 281° |
| 2026-05-06 01:01 | 33.60830 | -113.59739 | 31933 ft | 359 kts | 280° |
| 2026-05-06 01:01 | 33.62380 | -113.65440 | 31951 ft | 360 kts | 281° |
| 2026-05-06 01:02 | 33.63945 | -113.71157 | 31947 ft | 361 kts | 281° |
| 2026-05-06 01:02 | 33.65509 | -113.76857 | 31920 ft | 362 kts | 281° |
| 2026-05-06 01:03 | 33.67084 | -113.82597 | 31907 ft | 362 kts | 281° |
| 2026-05-06 01:03 | 33.68658 | -113.88348 | 31897 ft | 362 kts | 281° |
| 2026-05-06 01:04 | 33.70232 | -113.94111 | 31873 ft | 363 kts | 281° |
| 2026-05-06 01:04 | 33.71806 | -113.99871 | 31855 ft | 361 kts | 282° |
| 2026-05-06 01:05 | 33.73343 | -114.05452 | 31856 ft | 347 kts | 282° |
| 2026-05-06 01:05 | 33.74808 | -114.10846 | 31849 ft | 333 kts | 282° |
| 2026-05-06 01:06 | 33.76025 | -114.16096 | 31821 ft | 315 kts | 273° |
| 2026-05-06 01:06 | 33.76634 | -114.21203 | 31841 ft | 302 kts | 273° |
| 2026-05-06 01:06 | 33.76922 | -114.23674 | 31862 ft | 295 kts | 273° |
| 2026-05-06 01:07 | 33.77200 | -114.26065 | 31842 ft | 289 kts | 273° |
| 2026-05-06 01:07 | 33.77476 | -114.28432 | 31851 ft | 283 kts | 273° |
| 2026-05-06 01:07 | 33.77745 | -114.30749 | 31832 ft | 275 kts | 273° |
| 2026-05-06 01:07 | 33.78007 | -114.32996 | 31843 ft | 268 kts | 272° |
| 2026-05-06 01:08 | 33.78261 | -114.35190 | 31788 ft | 262 kts | 272° |
| 2026-05-06 01:08 | 33.78510 | -114.37340 | 31725 ft | 256 kts | 273° |
| 2026-05-06 01:08 | 33.78534 | -114.37552 | 31718 ft | 256 kts | 272° |
| 2026-05-06 01:09 | 33.78670 | -114.38715 | 31642 ft | 255 kts | 273° |
| 2026-05-06 01:10 | 33.78918 | -114.40840 | 31451 ft | 258 kts | 273° |
| 2026-05-06 01:10 | 33.79167 | -114.42990 | 31236 ft | 262 kts | 273° |
| 2026-05-06 01:10 | 33.79453 | -114.45279 | 29875 ft | 301 kts | 276° |
| 2026-05-06 01:10 | 33.79874 | -114.48003 | 28284 ft | 346 kts | 278° |
| 2026-05-06 01:11 | 33.80263 | -114.50825 | 28441 ft | 340 kts | 275° |
| 2026-05-06 01:11 | 33.80812 | -114.56438 | 28499 ft | 336 kts | 274° |
| 2026-05-06 01:12 | 33.81376 | -114.62007 | 28510 ft | 334 kts | 275° |
| 2026-05-06 01:12 | 33.81979 | -114.67520 | 28536 ft | 331 kts | 276° |
| 2026-05-06 01:13 | 33.82592 | -114.73005 | 28541 ft | 330 kts | 276° |
| 2026-05-06 01:13 | 33.83185 | -114.78625 | 28698 ft | 348 kts | 275° |
| 2026-05-06 01:14 | 33.84191 | -114.87638 | 28769 ft | 380 kts | 276° |
| 2026-05-06 01:14 | 33.84545 | -114.90844 | 28342 ft | 392 kts | 275° |
| 2026-05-06 01:14 | 33.84844 | -114.94113 | 27962 ft | 393 kts | 276° |
| 2026-05-06 01:15 | 33.85193 | -114.97373 | 27543 ft | 392 kts | 277° |
| 2026-05-06 01:15 | 33.85582 | -115.00631 | 27149 ft | 393 kts | 277° |
| 2026-05-06 01:15 | 33.85959 | -115.03853 | 26772 ft | 395 kts | 277° |
| 2026-05-06 01:15 | 33.86337 | -115.07141 | 26389 ft | 398 kts | 277° |
| 2026-05-06 01:16 | 33.86720 | -115.10453 | 26009 ft | 400 kts | 277° |
| 2026-05-06 01:16 | 33.87095 | -115.13773 | 25865 ft | 400 kts | 276° |
| 2026-05-06 01:16 | 33.87462 | -115.17106 | 25904 ft | 403 kts | 277° |
| 2026-05-06 01:16 | 33.87832 | -115.20460 | 25852 ft | 403 kts | 277° |
| 2026-05-06 01:17 | 33.88196 | -115.23809 | 25860 ft | 403 kts | 277° |
| 2026-05-06 01:17 | 33.88557 | -115.27155 | 25853 ft | 403 kts | 277° |
| 2026-05-06 01:17 | 33.88918 | -115.30498 | 25855 ft | 403 kts | 277° |
| 2026-05-06 01:17 | 33.89284 | -115.33859 | 25847 ft | 404 kts | 277° |
| 2026-05-06 01:18 | 33.89648 | -115.37208 | 25861 ft | 404 kts | 277° |
| 2026-05-06 01:18 | 33.90010 | -115.40574 | 25855 ft | 404 kts | 277° |
| 2026-05-06 01:18 | 33.90369 | -115.43885 | 25852 ft | 404 kts | 277° |
| 2026-05-06 01:18 | 33.90728 | -115.47194 | 25841 ft | 391 kts | 278° |
| 2026-05-06 01:19 | 33.91071 | -115.50379 | 25839 ft | 378 kts | 277° |
| 2026-05-06 01:19 | 33.91408 | -115.53509 | 25856 ft | 375 kts | 278° |
| 2026-05-06 01:19 | 33.91741 | -115.56624 | 25842 ft | 374 kts | 278° |
| 2026-05-06 01:19 | 33.92071 | -115.59727 | 25861 ft | 374 kts | 277° |
| 2026-05-06 01:20 | 33.92399 | -115.62832 | 25852 ft | 374 kts | 277° |
| 2026-05-06 01:20 | 33.92720 | -115.65954 | 25815 ft | 376 kts | 277° |
| 2026-05-06 01:20 | 33.92975 | -115.69106 | 25492 ft | 380 kts | 275° |
| 2026-05-06 01:20 | 33.93182 | -115.72278 | 25275 ft | 378 kts | 275° |
| 2026-05-06 01:21 | 33.93391 | -115.75426 | 25028 ft | 377 kts | 276° |
| 2026-05-06 01:21 | 33.93602 | -115.78575 | 24783 ft | 377 kts | 276° |
| 2026-05-06 01:21 | 33.93815 | -115.81682 | 24548 ft | 375 kts | 275° |
| 2026-05-06 01:21 | 33.94029 | -115.84801 | 24308 ft | 372 kts | 276° |
| 2026-05-06 01:22 | 33.94241 | -115.87904 | 24065 ft | 369 kts | 276° |
| 2026-05-06 01:22 | 33.94454 | -115.90987 | 23906 ft | 371 kts | 276° |
| 2026-05-06 01:22 | 33.94671 | -115.94086 | 23887 ft | 369 kts | 276° |
| 2026-05-06 01:22 | 33.94890 | -115.97165 | 23880 ft | 369 kts | 276° |
| 2026-05-06 01:23 | 33.95105 | -116.00243 | 23891 ft | 370 kts | 276° |
| 2026-05-06 01:23 | 33.95315 | -116.03296 | 23878 ft | 371 kts | 276° |
| 2026-05-06 01:23 | 33.95528 | -116.06400 | 23887 ft | 371 kts | 276° |
| 2026-05-06 01:23 | 33.95742 | -116.09514 | 23878 ft | 372 kts | 275° |
| 2026-05-06 01:24 | 33.95950 | -116.12618 | 23874 ft | 372 kts | 276° |
| 2026-05-06 01:24 | 33.96164 | -116.15728 | 23893 ft | 372 kts | 276° |
| 2026-05-06 01:24 | 33.96378 | -116.18831 | 23892 ft | 373 kts | 276° |
| 2026-05-06 01:24 | 33.96412 | -116.21965 | 23769 ft | 377 kts | 265° |
| 2026-05-06 01:25 | 33.95997 | -116.25087 | 23549 ft | 378 kts | 261° |
| 2026-05-06 01:25 | 33.95943 | -116.25440 | 23531 ft | 378 kts | 261° |
| 2026-05-06 01:25 | 33.95476 | -116.28636 | 23245 ft | 377 kts | 262° |
| 2026-05-06 01:26 | 33.95054 | -116.31770 | 22820 ft | 384 kts | 262° |
| 2026-05-06 01:26 | 33.94644 | -116.34984 | 22434 ft | 390 kts | 263° |
| 2026-05-06 01:26 | 33.94252 | -116.38216 | 22033 ft | 389 kts | 263° |
| 2026-05-06 01:26 | 33.93853 | -116.41422 | 21636 ft | 385 kts | 263° |
| 2026-05-06 01:27 | 33.93457 | -116.44595 | 21247 ft | 381 kts | 264° |
| 2026-05-06 01:27 | 33.93079 | -116.47738 | 20844 ft | 377 kts | 264° |
| 2026-05-06 01:27 | 33.92696 | -116.50852 | 20475 ft | 374 kts | 263° |
| 2026-05-06 01:27 | 33.92315 | -116.53946 | 20100 ft | 372 kts | 263° |
| 2026-05-06 01:28 | 33.91925 | -116.57011 | 19907 ft | 366 kts | 263° |
| 2026-05-06 01:28 | 33.91542 | -116.59981 | 19875 ft | 366 kts | 263° |
| 2026-05-06 01:28 | 33.91140 | -116.63081 | 19406 ft | 370 kts | 263° |
| 2026-05-06 01:28 | 33.90750 | -116.66080 | 19078 ft | 365 kts | 263° |
| 2026-05-06 01:29 | 33.90363 | -116.69085 | 18716 ft | 362 kts | 263° |
| 2026-05-06 01:29 | 33.89978 | -116.72061 | 18366 ft | 359 kts | 264° |
| 2026-05-06 01:29 | 33.89593 | -116.75027 | 17992 ft | 357 kts | 263° |
| 2026-05-06 01:29 | 33.89234 | -116.77977 | 17598 ft | 354 kts | 264° |
| 2026-05-06 01:30 | 33.88916 | -116.80912 | 17251 ft | 351 kts | 264° |
| 2026-05-06 01:30 | 33.88610 | -116.83763 | 16861 ft | 345 kts | 264° |
| 2026-05-06 01:30 | 33.88301 | -116.86580 | 16475 ft | 337 kts | 265° |
| 2026-05-06 01:30 | 33.88006 | -116.89378 | 16111 ft | 335 kts | 264° |
| 2026-05-06 01:31 | 33.87706 | -116.92162 | 15730 ft | 334 kts | 265° |
| 2026-05-06 01:31 | 33.87405 | -116.94928 | 15357 ft | 333 kts | 264° |
| 2026-05-06 01:31 | 33.87100 | -116.97684 | 14994 ft | 332 kts | 264° |
| 2026-05-06 01:31 | 33.86795 | -117.00437 | 14628 ft | 331 kts | 264° |
| 2026-05-06 01:32 | 33.86492 | -117.03168 | 14271 ft | 330 kts | 264° |
| 2026-05-06 01:32 | 33.86191 | -117.05880 | 13789 ft | 333 kts | 264° |
| 2026-05-06 01:32 | 33.85885 | -117.08626 | 13270 ft | 328 kts | 264° |
| 2026-05-06 01:32 | 33.85592 | -117.11279 | 12715 ft | 320 kts | 264° |
| 2026-05-06 01:33 | 33.85397 | -117.13025 | 12378 ft | 315 kts | 264° |
| 2026-05-06 01:33 | 33.85115 | -117.15539 | 12403 ft | 289 kts | 264° |
| 2026-05-06 01:33 | 33.84853 | -117.17883 | 12024 ft | 282 kts | 265° |
| 2026-05-06 01:33 | 33.84567 | -117.20437 | 11534 ft | 279 kts | 265° |
| 2026-05-06 01:34 | 33.84394 | -117.21993 | 11235 ft | 276 kts | 265° |
| 2026-05-06 01:34 | 33.84136 | -117.24254 | 10811 ft | 268 kts | 264° |
| 2026-05-06 01:34 | 33.83876 | -117.26461 | 10295 ft | 265 kts | 263° |
| 2026-05-06 01:34 | 33.83601 | -117.28656 | 9697 ft | 265 kts | 264° |
| 2026-05-06 01:35 | 33.83385 | -117.30857 | 9077 ft | 264 kts | 266° |
| 2026-05-06 01:35 | 33.83153 | -117.33052 | 8477 ft | 264 kts | 264° |
| 2026-05-06 01:35 | 33.82907 | -117.35206 | 8094 ft | 254 kts | 265° |
| 2026-05-06 01:35 | 33.82672 | -117.37244 | 7976 ft | 235 kts | 264° |
| 2026-05-06 01:36 | 33.82451 | -117.39104 | 7957 ft | 219 kts | 264° |
| 2026-05-06 01:36 | 33.82245 | -117.40860 | 7976 ft | 208 kts | 266° |
| 2026-05-06 01:36 | 33.82063 | -117.42503 | 7953 ft | 188 kts | 262° |
| 2026-05-06 01:36 | 33.81878 | -117.43979 | 7938 ft | 169 kts | 264° |
| 2026-05-06 01:37 | 33.81653 | -117.45382 | 7667 ft | 181 kts | 256° |
| 2026-05-06 01:37 | 33.81146 | -117.46942 | 7005 ft | 214 kts | 249° |
| 2026-05-06 01:37 | 33.80622 | -117.48628 | 6606 ft | 212 kts | 252° |
| 2026-05-06 01:37 | 33.80114 | -117.50268 | 6288 ft | 207 kts | 251° |
| 2026-05-06 01:38 | 33.79620 | -117.51867 | 5988 ft | 204 kts | 259° |
| 2026-05-06 01:38 | 33.79771 | -117.53523 | 5749 ft | 192 kts | 292° |
| 2026-05-06 01:38 | 33.80298 | -117.54951 | 5551 ft | 190 kts | 295° |
| 2026-05-06 01:38 | 33.80816 | -117.56340 | 5649 ft | 183 kts | 292° |
| 2026-05-06 01:39 | 33.81375 | -117.57858 | 5723 ft | 206 kts | 294° |
| 2026-05-06 01:39 | 33.81953 | -117.59430 | 5704 ft | 202 kts | 294° |
| 2026-05-06 01:39 | 33.82484 | -117.60983 | 5723 ft | 202 kts | 295° |
| 2026-05-06 01:39 | 33.83038 | -117.62507 | 5735 ft | 197 kts | 295° |
| 2026-05-06 01:40 | 33.83589 | -117.64017 | 5728 ft | 196 kts | 294° |
| 2026-05-06 01:40 | 33.84126 | -117.65513 | 5735 ft | 195 kts | 294° |
| 2026-05-06 01:40 | 33.84446 | -117.67108 | 5711 ft | 201 kts | 266° |
| 2026-05-06 01:40 | 33.83929 | -117.68656 | 5727 ft | 205 kts | 231° |
| 2026-05-06 01:41 | 33.82791 | -117.69679 | 5747 ft | 204 kts | 213° |
| 2026-05-06 01:41 | 33.81548 | -117.70542 | 5731 ft | 207 kts | 213° |
| 2026-05-06 01:41 | 33.80521 | -117.71679 | 5733 ft | 203 kts | 236° |
| 2026-05-06 01:41 | 33.79707 | -117.73089 | 5728 ft | 207 kts | 237° |
| 2026-05-06 01:42 | 33.78885 | -117.74515 | 5741 ft | 208 kts | 237° |
| 2026-05-06 01:42 | 33.78062 | -117.75937 | 5735 ft | 204 kts | 237° |
| 2026-05-06 01:42 | 33.77470 | -117.77456 | 5112 ft | 207 kts | 261° |
| 2026-05-06 01:42 | 33.77698 | -117.79096 | 4776 ft | 192 kts | 298° |
| 2026-05-06 01:43 | 33.78610 | -117.80155 | 4445 ft | 184 kts | 332° |
| 2026-05-06 01:43 | 33.79880 | -117.80557 | 3891 ft | 193 kts | 355° |
| 2026-05-06 01:43 | 33.81204 | -117.80316 | 3347 ft | 200 kts | 19° |
| 2026-05-06 01:43 | 33.82356 | -117.79348 | 2745 ft | 207 kts | 53° |
| 2026-05-06 01:44 | 33.82707 | -117.77746 | 2146 ft | 205 kts | 112° |
| 2026-05-06 01:44 | 33.81834 | -117.76656 | 2260 ft | 166 kts | 156° |
| 2026-05-06 01:44 | 33.80756 | -117.76458 | 2169 ft | 166 kts | 193° |
| 2026-05-06 01:44 | 33.79762 | -117.77075 | 2008 ft | 161 kts | 226° |
| 2026-05-06 01:45 | 33.79249 | -117.78266 | 1809 ft | 164 kts | 262° |
| 2026-05-06 01:45 | 33.79204 | -117.79624 | 1721 ft | 164 kts | 257° |
| 2026-05-06 01:45 | 33.78826 | -117.80911 | 1561 ft | 165 kts | 234° |
| 2026-05-06 01:45 | 33.77950 | -117.81774 | 1450 ft | 166 kts | 204° |
| 2026-05-06 01:46 | 33.76842 | -117.82125 | 1413 ft | 163 kts | 197° |
| 2026-05-06 01:46 | 33.75741 | -117.82446 | 1420 ft | 166 kts | 197° |
| 2026-05-06 01:46 | 33.74829 | -117.82716 | 1401 ft | 167 kts | 197° |
| 2026-05-06 01:46 | 33.73733 | -117.83037 | 1185 ft | 174 kts | 195° |
| 2026-05-06 01:47 | 33.72607 | -117.83395 | 1109 ft | 161 kts | 201° |
| 2026-05-06 01:47 | 33.71626 | -117.84004 | 974 ft | 159 kts | 212° |
| 2026-05-06 01:47 | 33.70681 | -117.84729 | 872 ft | 162 kts | 214° |
| 2026-05-06 01:47 | 33.69802 | -117.85461 | 684 ft | 155 kts | 213° |
| 2026-05-06 01:48 | 33.68905 | -117.86069 | 407 ft | 145 kts | 207° |
| 2026-05-06 01:48 | 33.68036 | -117.86602 | 145 ft | 132 kts | 210° |
| 2026-05-06 01:48 | 33.67301 | -117.87070 | 50 ft | 87 kts | 204° |
| 2026-05-06 01:48 | 33.67105 | -117.87186 | 52 ft | 20 kts | 202° |
| 2026-05-06 01:49 | 33.66952 | -117.87195 | 48 ft | 23 kts | 144° |
| 2026-05-06 01:49 | 33.66928 | -117.87168 | 50 ft | 0 kts | 134° |
| 2026-05-06 01:49 | 33.66928 | -117.87167 | 50 ft | 0 kts | 134° |
| 2026-05-06 01:50 | 33.66923 | -117.87162 | 50 ft | 6 kts | 134° |
| 2026-05-06 01:50 | 33.66877 | -117.87129 | 49 ft | 8 kts | 179° |
| 2026-05-06 01:50 | 33.66848 | -117.87142 | 50 ft | 0 kts | 211° |
| 2026-05-06 01:51 | 33.66843 | -117.87145 | 50 ft | 3 kts | 211° |
| 2026-05-06 01:51 | 33.66787 | -117.87186 | 50 ft | 12 kts | 212° |
| 2026-05-06 01:51 | 33.66714 | -117.87225 | 50 ft | 4 kts | 164° |
| 2026-05-06 01:51 | 33.66711 | -117.87223 | 50 ft | 2 kts | 159° |
| 2026-05-06 01:52 | 33.66697 | -117.87216 | 50 ft | 0 kts | 159° |
| 2026-05-06 01:53 | 33.66727 | -117.87191 | 49 ft | 0 kts | 40° |